Time;durP1;ratioP1;P1;durP2;ratioP2;P2;SDS_P1;SDS_P2;PMS_P1;PMS_P2;Temp;Humidity;BMP_temperature;BMP_pressure;BME280_temperature;BME280_humidity;BME280_pressure;Samples;Min_cycle;Max_cycle;Signal;HPM_P1;HPM_P2
2022/06/16 00:01:19;;;;;;;10.43;7.03;;;16.60;99.90;;;;;;5057089;28;20204;-60
2022/06/16 00:03:48;;;;;;;8.97;7.10;;;16.60;99.90;;;;;;5076200;28;20750;-61
2022/06/16 00:06:17;;;;;;;12.30;7.87;;;16.60;99.90;;;;;;5088590;28;20224;-61
2022/06/16 00:08:47;;;;;;;10.20;6.50;;;16.50;99.90;;;;;;5074726;28;20203;-60
2022/06/16 00:11:19;;;;;;;11.63;6.73;;;16.40;99.90;;;;;;5073811;28;20189;-60
2022/06/16 00:13:51;;;;;;;9.10;7.00;;;16.30;99.90;;;;;;5073876;28;20205;-60
2022/06/16 00:16:22;;;;;;;10.80;7.67;;;16.30;99.90;;;;;;5074282;28;20190;-61
2022/06/16 00:18:51;;;;;;;11.73;8.03;;;16.20;99.90;;;;;;5072773;28;20216;-60
2022/06/16 00:21:19;;;;;;;11.87;7.73;;;16.20;99.90;;;;;;5072448;28;20211;-60
2022/06/16 00:23:48;;;;;;;10.07;7.63;;;16.10;99.90;;;;;;5072523;28;20230;-60
2022/06/16 00:26:18;;;;;;;9.33;7.37;;;16.10;99.90;;;;;;5067119;28;20205;-61
2022/06/16 00:28:47;;;;;;;8.07;7.27;;;16.10;99.90;;;;;;5050757;28;20188;-61
2022/06/16 00:31:19;;;;;;;11.60;7.97;;;16.10;99.90;;;;;;5075976;28;20209;-60
2022/06/16 00:33:49;;;;;;;8.57;7.40;;;16.00;99.90;;;;;;5074727;28;20193;-61
2022/06/16 00:36:18;;;;;;;8.10;6.80;;;16.00;99.90;;;;;;5066174;28;20253;-60
2022/06/16 00:38:47;;;;;;;9.87;7.50;;;16.00;99.90;;;;;;5074029;28;20227;-61
2022/06/16 00:41:15;;;;;;;9.80;7.23;;;15.90;99.90;;;;;;5072943;28;20236;-60
2022/06/16 00:43:44;;;;;;;8.37;6.77;;;15.90;99.90;;;;;;5053749;28;20204;-60
2022/06/16 00:46:15;;;;;;;8.07;7.23;;;15.80;99.90;;;;;;5055305;28;20196;-60
2022/06/16 00:48:46;;;;;;;8.17;7.40;;;15.70;99.90;;;;;;5071816;28;20658;-60
2022/06/16 00:51:23;;;;;;;13.37;8.77;;;15.70;99.90;;;;;;5070310;28;20625;-61
2022/06/16 00:53:54;;;;;;;11.57;8.17;;;15.60;99.90;;;;;;5050616;28;20274;-60
2022/06/16 00:56:23;;;;;;;9.10;8.13;;;15.60;99.90;;;;;;5060725;28;20201;-61
2022/06/16 00:58:55;;;;;;;9.57;8.10;;;15.60;99.90;;;;;;5065568;28;20275;-61
2022/06/16 01:01:26;;;;;;;11.80;8.00;;;15.60;99.90;;;;;;5053565;28;20586;-61
2022/06/16 01:06:47;;;;;;;9.53;8.60;;;15.60;99.90;;;;;;5073933;28;20195;-60
2022/06/16 01:09:19;;;;;;;13.23;9.40;;;15.60;99.90;;;;;;5066540;28;20224;-60
2022/06/16 01:15:05;;;;;;;10.53;9.20;;;15.50;99.90;;;;;;5068468;28;20302;-61
2022/06/16 01:17:41;;;;;;;10.03;8.83;;;15.50;99.90;;;;;;5050063;28;20250;-60
2022/06/16 01:20:19;;;;;;;9.67;8.43;;;15.40;99.90;;;;;;5071773;28;20214;-60
2022/06/16 01:23:30;;;;;;;14.90;10.73;;;15.30;99.90;;;;;;5069980;28;20208;-60
2022/06/16 01:26:32;;;;;;;14.47;10.53;;;15.30;99.90;;;;;;5040055;28;20218;-60
2022/06/16 01:29:11;;;;;;;12.90;10.90;;;15.30;99.90;;;;;;5061540;28;20195;-61
2022/06/16 01:31:44;;;;;;;14.83;10.60;;;15.20;99.90;;;;;;5074863;28;20262;-61
2022/06/16 01:34:23;;;;;;;12.77;10.73;;;15.20;99.90;;;;;;5076604;28;20199;-61
2022/06/16 01:36:58;;;;;;;15.33;10.60;;;15.20;99.90;;;;;;5073668;28;20200;-60
2022/06/16 01:39:35;;;;;;;14.93;10.33;;;15.20;99.90;;;;;;5072213;28;20250;-61
2022/06/16 01:42:10;;;;;;;14.03;10.97;;;15.10;99.90;;;;;;5073752;28;20196;-61
2022/06/16 01:44:44;;;;;;;14.80;11.60;;;15.10;99.90;;;;;;5052848;28;20196;-61
2022/06/16 01:47:16;;;;;;;15.27;11.07;;;15.10;99.90;;;;;;5069559;28;20278;-60
2022/06/16 01:49:49;;;;;;;12.40;10.33;;;15.00;99.90;;;;;;5048408;28;20198;-60
2022/06/16 01:52:23;;;;;;;12.70;11.40;;;15.00;99.90;;;;;;5056911;28;20219;-61
2022/06/16 01:54:56;;;;;;;14.70;11.70;;;15.00;99.90;;;;;;5059222;28;20265;-60
2022/06/16 01:57:30;;;;;;;14.07;11.03;;;15.00;99.90;;;;;;5048895;28;20219;-61
2022/06/16 02:00:05;;;;;;;17.63;12.00;;;14.90;99.90;;;;;;5073102;28;20291;-60
2022/06/16 02:02:37;;;;;;;21.00;12.93;;;14.90;99.90;;;;;;5055287;28;20560;-60
2022/06/16 02:05:13;;;;;;;15.53;13.77;;;14.90;99.90;;;;;;5072178;28;20207;-60
2022/06/16 02:07:46;;;;;;;17.33;12.33;;;14.90;99.90;;;;;;5070406;28;20280;-60
2022/06/16 02:10:18;;;;;;;14.83;13.13;;;14.90;99.90;;;;;;5057518;28;20255;-60
2022/06/16 02:12:58;;;;;;;16.20;13.17;;;14.90;99.90;;;;;;5082630;28;20192;-60
2022/06/16 02:15:38;;;;;;;19.60;13.90;;;14.90;99.90;;;;;;5072673;28;20195;-60
2022/06/16 02:18:12;;;;;;;17.63;13.70;;;14.90;99.90;;;;;;5071338;28;20282;-60
2022/06/16 02:20:52;;;;;;;18.43;13.90;;;14.90;99.90;;;;;;5061827;28;20215;-60
2022/06/16 02:23:21;;;;;;;19.67;13.37;;;14.90;99.90;;;;;;5051887;28;20223;-60
2022/06/16 02:25:54;;;;;;;16.07;12.73;;;14.90;99.90;;;;;;5072162;28;20208;-60
2022/06/16 02:28:22;;;;;;;15.87;12.97;;;14.80;99.90;;;;;;5039262;28;20285;-60
2022/06/16 02:31:08;;;;;;;16.07;13.30;;;14.80;99.90;;;;;;5070224;28;20241;-60
2022/06/16 02:33:48;;;;;;;17.13;13.87;;;14.80;99.90;;;;;;5078728;28;20192;-60
2022/06/16 02:36:29;;;;;;;15.07;13.57;;;14.80;99.90;;;;;;5071757;28;20211;-60
2022/06/16 02:39:10;;;;;;;17.97;13.30;;;14.80;99.90;;;;;;5044218;28;20204;-60
2022/06/16 02:41:56;;;;;;;16.00;12.83;;;14.70;99.90;;;;;;5072121;28;20294;-60
2022/06/16 02:44:31;;;;;;;16.23;13.67;;;14.70;99.90;;;;;;5051039;28;20196;-60
2022/06/16 02:47:06;;;;;;;15.80;13.80;;;14.70;99.90;;;;;;5072289;28;20233;-60
2022/06/16 02:49:43;;;;;;;16.00;13.60;;;14.60;99.90;;;;;;5065404;28;20198;-60
2022/06/16 02:52:23;;;;;;;18.30;13.57;;;14.60;99.90;;;;;;5037742;28;20191;-61
2022/06/16 02:54:58;;;;;;;17.80;14.60;;;14.50;99.90;;;;;;5076391;28;20276;-60
2022/06/16 02:57:32;;;;;;;16.53;13.20;;;14.50;99.90;;;;;;5071342;28;20283;-60
2022/06/16 03:00:07;;;;;;;19.90;14.40;;;14.50;99.90;;;;;;5056100;28;20196;-60
2022/06/16 03:02:40;;;;;;;17.90;13.50;;;14.40;99.90;;;;;;5067182;28;20236;-60
2022/06/16 03:05:11;;;;;;;17.43;13.57;;;14.40;99.90;;;;;;5061386;28;20206;-60
2022/06/16 03:07:41;;;;;;;18.33;14.50;;;14.30;99.90;;;;;;5054217;28;20200;-60
2022/06/16 03:10:12;;;;;;;16.87;13.43;;;14.30;99.90;;;;;;5067013;28;20195;-61
2022/06/16 03:12:41;;;;;;;15.70;14.00;;;14.30;99.90;;;;;;5085229;28;20195;-60
2022/06/16 03:15:11;;;;;;;20.20;14.23;;;14.30;99.90;;;;;;5047384;28;20192;-60
2022/06/16 03:17:40;;;;;;;18.07;14.73;;;14.20;99.90;;;;;;5051658;28;20243;-60
2022/06/16 03:20:11;;;;;;;21.47;14.93;;;14.20;99.90;;;;;;5084681;28;20192;-60
2022/06/16 03:22:40;;;;;;;17.10;14.83;;;14.20;99.90;;;;;;5069579;28;20219;-60
2022/06/16 03:25:11;;;;;;;17.23;14.17;;;14.20;99.90;;;;;;5059098;28;20197;-61
2022/06/16 03:27:40;;;;;;;18.20;14.87;;;14.10;99.90;;;;;;5053658;28;20218;-60
2022/06/16 03:30:09;;;;;;;17.67;15.33;;;14.10;99.90;;;;;;5071273;28;20668;-60
2022/06/16 03:32:38;;;;;;;17.00;14.50;;;14.10;99.90;;;;;;5050702;28;20203;-60
2022/06/16 03:35:09;;;;;;;17.33;14.70;;;14.10;99.90;;;;;;5067823;28;20647;-60
2022/06/16 03:37:37;;;;;;;18.43;15.03;;;14.00;99.90;;;;;;5072007;28;20684;-60
2022/06/16 03:40:07;;;;;;;18.33;15.23;;;14.00;99.90;;;;;;5072520;28;20199;-60
2022/06/16 03:42:36;;;;;;;18.17;14.40;;;14.00;99.90;;;;;;5053934;28;20273;-60
2022/06/16 03:45:06;;;;;;;16.47;13.77;;;14.00;99.90;;;;;;5053178;28;20191;-60
2022/06/16 03:47:34;;;;;;;21.30;14.37;;;14.00;99.90;;;;;;5071271;28;20220;-60
2022/06/16 03:50:03;;;;;;;20.00;14.97;;;14.00;99.90;;;;;;5067674;28;20189;-60
2022/06/16 03:52:33;;;;;;;20.33;15.27;;;14.00;99.90;;;;;;5067393;28;20188;-60
2022/06/16 03:55:01;;;;;;;19.10;14.77;;;14.00;99.90;;;;;;5070498;28;20561;-60
2022/06/16 03:57:32;;;;;;;22.33;14.87;;;14.00;99.90;;;;;;5063367;28;20276;-60
2022/06/16 04:00:03;;;;;;;18.10;13.87;;;14.00;99.90;;;;;;5054453;28;20188;-60
2022/06/16 04:02:32;;;;;;;15.67;14.07;;;13.90;99.90;;;;;;5070807;28;20235;-60
2022/06/16 04:05:01;;;;;;;17.60;14.83;;;13.90;99.90;;;;;;5053448;28;20196;-60
2022/06/16 04:07:30;;;;;;;21.10;14.40;;;13.90;99.90;;;;;;5053711;28;20645;-60
2022/06/16 04:10:00;;;;;;;17.73;13.83;;;13.90;99.90;;;;;;5049875;28;20207;-60
2022/06/16 04:12:28;;;;;;;16.90;13.67;;;13.90;99.90;;;;;;5057777;28;20188;-60
2022/06/16 04:14:57;;;;;;;19.43;14.43;;;13.90;99.90;;;;;;5077823;28;20291;-60
2022/06/16 04:17:25;;;;;;;17.60;13.97;;;13.90;99.90;;;;;;5056624;28;20195;-61
2022/06/16 04:22:40;;;;;;;17.13;13.20;;;14.00;99.90;;;;;;5069773;28;20243;-60
2022/06/16 04:25:14;;;;;;;15.27;13.53;;;14.10;99.90;;;;;;5074798;28;20267;-61
2022/06/16 04:27:43;;;;;;;16.30;14.30;;;14.10;99.90;;;;;;5071240;28;20194;-60
2022/06/16 04:30:12;;;;;;;14.30;12.73;;;14.20;99.90;;;;;;5068715;28;20192;-60
2022/06/16 04:32:40;;;;;;;16.93;13.93;;;14.20;99.90;;;;;;5041682;28;20556;-61
2022/06/16 04:35:09;;;;;;;16.33;12.90;;;14.30;99.90;;;;;;5073970;28;20656;-60
2022/06/16 04:37:38;;;;;;;16.70;13.13;;;14.30;99.90;;;;;;5069270;28;20224;-60
2022/06/16 04:40:10;;;;;;;14.63;13.07;;;14.30;99.90;;;;;;5048044;28;20287;-61
2022/06/16 04:42:39;;;;;;;17.33;12.87;;;14.40;99.90;;;;;;5056101;28;20242;-60
2022/06/16 04:45:10;;;;;;;17.57;13.37;;;14.40;99.90;;;;;;5074612;28;20694;-60
2022/06/16 04:47:39;;;;;;;15.57;13.33;;;14.50;99.90;;;;;;5072048;28;20204;-61
2022/06/16 04:50:09;;;;;;;15.33;12.87;;;14.60;99.90;;;;;;5062114;28;20221;-60
2022/06/16 04:52:37;;;;;;;18.20;12.90;;;14.60;99.90;;;;;;5085750;28;20180;-61
2022/06/16 04:55:07;;;;;;;14.10;12.20;;;14.70;99.90;;;;;;5073284;28;20238;-61
2022/06/16 04:57:39;;;;;;;16.40;12.63;;;14.80;99.90;;;;;;5066679;28;20200;-61
2022/06/16 05:00:10;;;;;;;17.90;13.60;;;14.80;99.90;;;;;;5073825;28;20661;-60
2022/06/16 05:02:53;;;;;;;14.10;12.33;;;14.90;99.90;;;;;;5068843;28;20233;-61
2022/06/16 05:05:22;;;;;;;14.83;12.30;;;15.00;99.90;;;;;;5073795;28;20196;-60
2022/06/16 05:07:50;;;;;;;13.70;11.50;;;15.10;99.90;;;;;;5041037;28;20679;-60
2022/06/16 05:10:19;;;;;;;12.83;11.50;;;15.10;99.90;;;;;;5070358;28;20197;-60
2022/06/16 05:12:49;;;;;;;15.53;12.00;;;15.20;99.90;;;;;;5059846;28;20514;-60
2022/06/16 05:15:18;;;;;;;12.43;11.00;;;15.40;99.90;;;;;;5068651;28;20215;-61
2022/06/16 05:17:47;;;;;;;15.47;11.00;;;15.40;99.90;;;;;;5071537;28;20733;-61
2022/06/16 05:20:15;;;;;;;14.87;10.40;;;15.50;99.90;;;;;;5058654;28;20192;-61
2022/06/16 05:22:43;;;;;;;16.10;10.67;;;15.60;99.90;;;;;;5072872;28;20219;-60
2022/06/16 05:25:12;;;;;;;12.60;9.57;;;15.60;99.90;;;;;;5052010;28;20200;-61
2022/06/16 05:27:43;;;;;;;14.17;10.50;;;15.70;99.90;;;;;;5071974;28;20612;-61
2022/06/16 05:30:14;;;;;;;15.00;9.97;;;15.80;99.90;;;;;;5074197;28;20281;-61
2022/06/16 05:32:42;;;;;;;19.27;11.33;;;15.90;99.90;;;;;;5047717;28;20197;-61
2022/06/16 05:35:12;;;;;;;11.80;10.07;;;16.00;99.90;;;;;;5054378;28;20320;-61
2022/06/16 05:37:40;;;;;;;14.03;10.13;;;16.10;99.90;;;;;;5068705;28;20271;-61
2022/06/16 05:40:09;;;;;;;18.53;10.73;;;16.20;99.90;;;;;;5071110;28;20192;-61
2022/06/16 05:42:41;;;;;;;12.17;9.57;;;16.20;99.90;;;;;;5071312;28;20217;-61
2022/06/16 05:45:12;;;;;;;11.73;9.63;;;16.30;99.90;;;;;;5066281;28;20197;-61
2022/06/16 05:47:42;;;;;;;13.10;9.63;;;16.40;99.90;;;;;;5067913;28;20194;-61
2022/06/16 05:50:11;;;;;;;14.57;9.07;;;16.50;99.90;;;;;;5072523;28;20205;-61
2022/06/16 05:52:39;;;;;;;11.63;8.30;;;16.60;99.90;;;;;;5075552;28;20223;-61
2022/06/16 05:55:10;;;;;;;13.17;8.57;;;16.70;99.90;;;;;;5070718;28;20205;-61
2022/06/16 05:57:39;;;;;;;11.50;8.17;;;16.90;99.90;;;;;;5067804;28;20214;-61
2022/06/16 06:00:09;;;;;;;9.60;7.50;;;17.10;99.90;;;;;;5072784;28;20672;-61
2022/06/16 06:02:38;;;;;;;9.00;8.20;;;17.20;99.90;;;;;;5072123;28;20237;-61
2022/06/16 06:05:11;;;;;;;16.17;8.50;;;17.30;99.90;;;;;;5071121;28;20208;-61
2022/06/16 06:18:43;;;;;;;11.50;6.80;;;18.00;99.90;;;;;;5066067;28;20664;-61
2022/06/16 06:21:13;;;;;;;10.33;6.83;;;18.20;99.90;;;;;;5060281;28;20262;-61
2022/06/16 06:23:41;;;;;;;9.50;7.07;;;18.30;99.90;;;;;;5049407;28;20254;-61
2022/06/16 06:26:13;;;;;;;8.90;6.33;;;18.40;99.90;;;;;;5053881;28;20275;-61
2022/06/16 06:28:42;;;;;;;9.03;6.60;;;18.40;99.90;;;;;;5065745;28;20247;-61
2022/06/16 06:31:10;;;;;;;8.43;6.73;;;18.50;99.90;;;;;;5058470;28;20589;-61
2022/06/16 06:33:38;;;;;;;16.23;6.77;;;18.50;99.90;;;;;;5056801;28;20199;-61
2022/06/16 06:36:07;;;;;;;11.80;6.90;;;18.60;99.90;;;;;;5068285;28;20236;-61
2022/06/16 06:38:39;;;;;;;10.43;6.53;;;18.60;99.90;;;;;;5083252;28;20210;-61
2022/06/16 06:41:08;;;;;;;8.03;6.93;;;18.80;99.90;;;;;;5075631;28;20664;-61
2022/06/16 06:43:37;;;;;;;10.53;6.53;;;18.80;99.90;;;;;;5072724;28;20258;-61
2022/06/16 06:46:05;;;;;;;8.03;7.13;;;18.90;99.90;;;;;;5058699;28;20572;-61
2022/06/16 06:48:36;;;;;;;10.70;6.87;;;19.00;99.90;;;;;;5067108;28;20194;-61
2022/06/16 06:51:05;;;;;;;10.17;7.30;;;19.10;99.90;;;;;;5069977;28;20677;-61
2022/06/16 06:53:33;;;;;;;16.33;7.40;;;19.10;99.90;;;;;;5054454;28;20184;-61
2022/06/16 06:56:03;;;;;;;13.23;7.47;;;19.20;99.90;;;;;;5071730;28;20188;-61
2022/06/16 06:58:32;;;;;;;48.43;10.47;;;19.30;99.90;;;;;;5072239;28;20689;-61
2022/06/16 07:01:01;;;;;;;13.43;7.20;;;19.50;99.90;;;;;;5054501;28;20192;-61
2022/06/16 07:03:31;;;;;;;11.57;7.23;;;19.50;99.90;;;;;;5072236;28;20232;-61
2022/06/16 07:06:02;;;;;;;24.43;10.73;;;19.60;99.90;;;;;;5042971;28;20215;-61
2022/06/16 07:08:31;;;;;;;19.53;7.77;;;19.60;99.90;;;;;;5072319;28;20704;-61
2022/06/16 07:10:59;;;;;;;50.57;11.27;;;19.70;99.90;;;;;;5061925;28;20638;-61
2022/06/16 07:13:29;;;;;;;10.80;7.10;;;19.70;99.90;;;;;;5076430;28;20222;-61
2022/06/16 07:15:57;;;;;;;8.93;7.00;;;19.90;99.90;;;;;;5070707;28;20207;-61
2022/06/16 07:18:26;;;;;;;11.10;7.07;;;20.00;99.90;;;;;;5051062;28;20200;-61
2022/06/16 07:20:54;;;;;;;10.57;6.70;;;20.00;99.90;;;;;;5058817;28;20649;-61
2022/06/16 07:23:22;;;;;;;11.33;7.40;;;20.10;99.90;;;;;;5083525;28;20569;-61
2022/06/16 07:25:52;;;;;;;10.47;6.80;;;20.30;99.90;;;;;;5071559;28;20196;-61
2022/06/16 07:28:21;;;;;;;12.60;7.70;;;20.50;99.90;;;;;;5072104;28;20199;-61
2022/06/16 07:30:51;;;;;;;9.60;7.30;;;20.50;99.90;;;;;;5066579;28;20202;-60
2022/06/16 07:33:19;;;;;;;10.33;7.30;;;20.50;99.90;;;;;;5034263;28;20185;-61
2022/06/16 07:35:47;;;;;;;11.13;6.97;;;20.60;99.90;;;;;;5061494;28;20200;-61
2022/06/16 07:38:16;;;;;;;8.83;6.80;;;20.70;99.90;;;;;;5052753;28;20247;-61
2022/06/16 07:40:45;;;;;;;11.73;6.87;;;20.70;99.90;;;;;;5065873;28;20192;-61
2022/06/16 07:43:13;;;;;;;30.10;7.77;;;20.80;99.90;;;;;;5070528;28;20269;-61
2022/06/16 07:45:42;;;;;;;14.93;6.90;;;20.80;99.90;;;;;;5075802;28;20250;-61
2022/06/16 07:48:15;;;;;;;13.33;6.97;;;20.90;99.90;;;;;;5076200;28;20214;-60
2022/06/16 07:50:44;;;;;;;15.33;6.83;;;21.10;99.90;;;;;;5065225;28;20219;-61
2022/06/16 07:53:12;;;;;;;12.17;6.60;;;21.30;99.90;;;;;;5076082;28;20250;-61
2022/06/16 07:55:40;;;;;;;10.27;6.73;;;21.40;99.90;;;;;;5073456;28;20684;-61
2022/06/16 07:58:09;;;;;;;8.27;6.53;;;21.40;99.90;;;;;;5075372;28;20597;-61
2022/06/16 08:00:38;;;;;;;7.27;6.40;;;21.50;99.90;;;;;;5064101;28;20706;-61
2022/06/16 08:03:06;;;;;;;11.80;6.57;;;21.70;99.90;;;;;;5070156;28;20224;-61
2022/06/16 08:05:36;;;;;;;8.90;5.70;;;21.80;99.90;;;;;;5074895;28;20192;-58
2022/06/16 08:08:07;;;;;;;10.03;5.77;;;21.80;99.90;;;;;;5089123;28;20208;-63
2022/06/16 08:10:36;;;;;;;11.53;5.90;;;22.00;99.90;;;;;;5082874;28;20262;-61
2022/06/16 08:13:04;;;;;;;10.20;5.57;;;22.20;99.90;;;;;;5070685;28;20215;-61
2022/06/16 08:15:33;;;;;;;7.77;5.40;;;22.30;99.90;;;;;;5072751;28;20275;-60
2022/06/16 08:18:02;;;;;;;12.70;5.80;;;22.40;99.90;;;;;;5071742;28;20291;-61
2022/06/16 08:20:31;;;;;;;10.87;5.73;;;22.50;99.90;;;;;;5071621;28;20283;-61
2022/06/16 08:23:04;;;;;;;7.47;5.53;;;22.60;99.90;;;;;;5043516;28;20613;-61
2022/06/16 08:25:32;;;;;;;13.77;4.90;;;22.60;99.90;;;;;;5073161;28;20189;-61
2022/06/16 08:28:04;;;;;;;6.20;4.80;;;22.70;99.90;;;;;;5060345;28;20697;-61
2022/06/16 08:30:34;;;;;;;6.87;4.63;;;22.80;99.90;;;;;;5068234;28;20280;-62
2022/06/16 08:33:03;;;;;;;7.67;4.40;;;23.00;99.90;;;;;;5070360;28;20209;-61
2022/06/16 08:35:31;;;;;;;7.63;4.30;;;23.10;99.90;;;;;;5068546;28;20197;-61
2022/06/16 08:38:01;;;;;;;5.13;4.20;;;23.20;99.90;;;;;;5069128;28;20277;-61
2022/06/16 08:40:32;;;;;;;8.77;4.37;;;23.40;99.90;;;;;;5067195;28;20219;-62
2022/06/16 08:43:05;;;;;;;5.77;3.77;;;23.40;99.90;;;;;;5068483;28;20217;-61
2022/06/16 08:45:35;;;;;;;9.43;3.90;;;23.60;99.90;;;;;;5066909;28;20306;-62
2022/06/16 08:48:19;;;;;;;8.13;3.87;;;23.80;99.90;;;;;;5049500;28;20281;-61
2022/06/16 08:50:55;;;;;;;10.93;3.83;;;23.90;99.90;;;;;;5068682;28;20245;-61
2022/06/16 08:53:45;;;;;;;6.93;3.67;;;23.90;99.90;;;;;;5051641;28;20209;-63
2022/06/16 08:56:20;;;;;;;13.67;3.63;;;23.90;99.90;;;;;;5066366;28;20290;-63
2022/06/16 08:58:56;;;;;;;7.67;3.60;;;24.10;99.90;;;;;;5052522;28;20791;-62
2022/06/16 09:01:33;;;;;;;5.40;3.67;;;24.30;99.90;;;;;;5067756;28;20192;-62
2022/06/16 09:04:08;;;;;;;7.03;3.67;;;24.40;99.90;;;;;;5059313;28;20322;-62
2022/06/16 09:06:48;;;;;;;4.50;3.70;;;24.50;99.90;;;;;;5068732;28;20686;-62
2022/06/16 09:12:38;;;;;;;7.10;3.60;;;24.40;99.90;;;;;;5048525;28;20236;-62
2022/06/16 09:15:17;;;;;;;9.63;3.87;;;24.50;99.90;;;;;;5053082;28;20192;-62
2022/06/16 09:18:01;;;;;;;3.33;3.00;;;24.60;99.90;;;;;;5065811;28;20203;-62
2022/06/16 09:20:36;;;;;;;6.37;3.10;;;24.80;99.90;;;;;;5069923;28;20196;-62
2022/06/16 09:23:26;;;;;;;6.97;3.03;;;24.90;99.90;;;;;;5070593;28;20215;-62
2022/06/16 09:26:10;;;;;;;5.63;3.50;;;25.00;99.90;;;;;;5071404;28;20197;-62
2022/06/16 09:28:43;;;;;;;5.30;3.30;;;25.00;99.90;;;;;;5068845;28;20192;-62
2022/06/16 09:31:15;;;;;;;9.83;3.23;;;25.20;99.90;;;;;;5068718;28;20637;-62
2022/06/16 09:33:50;;;;;;;4.83;3.37;;;25.40;99.90;;;;;;5067439;28;20280;-61
2022/06/16 09:36:24;;;;;;;4.93;3.40;;;25.40;99.90;;;;;;5064396;28;20250;-62
2022/06/16 09:38:57;;;;;;;5.00;2.60;;;25.70;99.90;;;;;;5049739;28;20205;-62
2022/06/16 09:44:25;;;;;;;4.07;3.37;;;25.80;99.90;;;;;;5065666;28;20200;-62
2022/06/16 09:46:57;;;;;;;5.43;3.80;;;25.90;99.90;;;;;;5046917;28;20197;-62
2022/06/16 09:49:34;;;;;;;6.30;3.47;;;25.80;99.90;;;;;;5069780;28;20220;-62
2022/06/16 09:52:27;;;;;;;6.33;3.83;;;25.90;99.90;;;;;;5059865;28;20550;-62
2022/06/16 09:54:59;;;;;;;4.10;3.50;;;26.00;99.90;;;;;;5080186;28;20224;-62
2022/06/16 09:57:35;;;;;;;7.20;3.53;;;26.10;99.90;;;;;;5065656;28;20200;-62
2022/06/16 10:00:10;;;;;;;4.78;3.65;;;26.40;99.90;;;;;;5067640;28;20193;-61
2022/06/16 10:02:42;;;;;;;3.60;2.90;;;26.70;99.90;;;;;;5063399;28;20232;-62
2022/06/16 10:05:15;;;;;;;4.00;2.97;;;26.70;99.90;;;;;;5050292;28;20259;-62
2022/06/16 10:07:50;;;;;;;6.28;3.90;;;26.80;99.90;;;;;;5049649;28;20193;-62
2022/06/16 10:10:25;;;;;;;4.85;3.40;;;26.90;99.90;;;;;;5066639;28;20276;-61
2022/06/16 10:13:01;;;;;;;3.70;3.40;;;27.00;99.90;;;;;;5049040;28;20734;-62
2022/06/16 10:15:38;;;;;;;5.22;3.47;;;27.00;99.90;;;;;;5063883;28;20282;-62
2022/06/16 10:18:08;;;;;;;11.00;3.80;;;27.10;99.90;;;;;;5061920;28;20202;-62
2022/06/16 10:20:38;;;;;;;3.72;3.42;;;27.20;99.90;;;;;;5059128;28;20294;-62
2022/06/16 10:23:11;;;;;;;5.10;2.95;;;27.40;99.90;;;;;;5046946;28;20202;-61
2022/06/16 10:25:45;;;;;;;6.10;3.88;;;27.60;99.90;;;;;;5068162;28;20217;-62
2022/06/16 10:28:29;;;;;;;5.72;3.30;;;27.70;99.90;;;;;;5046292;28;20222;-62
2022/06/16 10:31:01;;;;;;;5.80;3.53;;;27.90;99.90;;;;;;5064711;28;20285;-62
2022/06/16 10:33:33;;;;;;;7.95;3.60;;;28.10;99.90;;;;;;5064029;28;20231;-61
2022/06/16 10:36:17;;;;;;;4.15;3.10;;;28.00;99.90;;;;;;5066863;28;20275;-62
2022/06/16 10:39:04;;;;;;;5.07;3.30;;;27.80;99.90;;;;;;5064788;28;20571;-62
2022/06/16 10:41:37;;;;;;;6.18;3.60;;;27.60;99.90;;;;;;5065953;28;20668;-62
2022/06/16 10:44:13;;;;;;;5.45;4.00;;;27.60;99.90;;;;;;5064024;28;20195;-62
2022/06/16 10:46:49;;;;;;;5.70;3.58;;;27.50;99.90;;;;;;5063080;28;20694;-61
2022/06/16 10:49:21;;;;;;;4.55;3.35;;;27.70;99.90;;;;;;5065801;28;20196;-61
2022/06/16 10:51:54;;;;;;;3.50;3.22;;;27.90;99.90;;;;;;5064338;28;20204;-62
2022/06/16 10:54:28;;;;;;;3.50;3.03;;;28.20;99.90;;;;;;5059847;28;20287;-60
2022/06/16 10:57:08;;;;;;;8.73;3.60;;;28.30;99.90;;;;;;5059370;28;20209;-60
2022/06/16 10:59:43;;;;;;;5.03;3.15;;;28.20;99.90;;;;;;5058478;28;20200;-62
2022/06/16 11:02:21;;;;;;;4.00;3.30;;;28.20;99.90;;;;;;5062995;28;20204;-62
2022/06/16 11:04:55;;;;;;;5.05;3.17;;;28.20;99.90;;;;;;5059770;28;20573;-62
2022/06/16 11:07:24;;;;;;;8.10;3.20;;;28.30;99.90;;;;;;5058097;28;20199;-62
2022/06/16 11:10:04;;;;;;;5.55;3.10;;;28.30;99.90;;;;;;5062973;28;20196;-62
2022/06/16 11:12:38;;;;;;;12.07;2.80;;;28.50;99.90;;;;;;5057470;28;20756;-62
2022/06/16 11:15:18;;;;;;;6.88;3.15;;;28.60;99.90;;;;;;5060405;28;20202;-62
2022/06/16 11:17:50;;;;;;;5.75;3.03;;;28.70;98.50;;;;;;5047630;28;20200;-61
2022/06/16 11:20:31;;;;;;;6.97;3.00;;;28.70;99.60;;;;;;5066540;28;20284;-62
2022/06/16 11:23:00;;;;;;;8.13;2.50;;;28.70;99.30;;;;;;5046909;28;20191;-62
2022/06/16 11:25:31;;;;;;;3.15;2.63;;;28.80;99.90;;;;;;5069509;28;20294;-62
2022/06/16 11:28:06;;;;;;;10.68;2.88;;;29.00;99.20;;;;;;5072737;28;20210;-62
2022/06/16 11:30:39;;;;;;;4.43;2.85;;;29.10;99.90;;;;;;5051153;28;20222;-62
2022/06/16 11:34:06;;;;;;;7.45;3.08;;;29.00;99.90;;;;;;5050765;28;20277;-62
2022/06/16 11:36:22;;;;;;;6.28;2.80;;;29.00;99.90;;;;;;5066946;28;20199;-61
2022/06/16 11:38:59;;;;;;;6.50;2.53;;;28.90;99.80;;;;;;5073117;28;20191;-61
2022/06/16 11:41:29;;;;;;;3.35;2.55;;;28.90;98.20;;;;;;5070121;28;20268;-61
2022/06/16 11:44:19;;;;;;;2.35;2.20;;;28.80;99.00;;;;;;5061753;28;20246;-61
2022/06/16 11:46:56;;;;;;;2.78;2.53;;;28.60;98.20;;;;;;5088791;28;20191;-61
2022/06/16 11:49:35;;;;;;;6.13;2.83;;;28.70;99.10;;;;;;5069065;28;20199;-61
2022/06/16 11:52:13;;;;;;;5.53;2.30;;;28.60;97.20;;;;;;5069004;28;20198;-61
2022/06/16 11:54:53;;;;;;;3.70;2.63;;;28.20;96.40;;;;;;5066335;28;20226;-61
2022/06/16 11:57:29;;;;;;;5.22;2.58;;;27.70;96.40;;;;;;5072490;28;20228;-61
2022/06/16 12:00:19;;;;;;;7.70;2.42;;;27.70;99.90;;;;;;5053694;28;20783;-61
2022/06/16 12:03:38;;;;;;;5.00;2.47;;;28.20;99.90;;;;;;5069867;28;20344;-61
2022/06/16 12:06:26;;;;;;;4.82;2.42;;;28.40;99.90;;;;;;5061076;28;20274;-61
2022/06/16 12:09:07;;;;;;;3.50;2.20;;;28.20;97.70;;;;;;5045235;28;20194;-61
2022/06/16 12:11:43;;;;;;;5.82;2.47;;;28.10;96.60;;;;;;5068129;28;20222;-61
2022/06/16 12:14:35;;;;;;;6.68;2.50;;;28.00;97.20;;;;;;5068178;28;20210;-60
2022/06/16 12:17:12;;;;;;;3.30;2.53;;;27.80;96.50;;;;;;5070513;28;20204;-61
2022/06/16 12:19:53;;;;;;;2.87;2.50;;;27.50;97.40;;;;;;5068849;28;20196;-61
2022/06/16 12:22:38;;;;;;;3.20;2.50;;;27.40;95.70;;;;;;5052435;28;20266;-61
2022/06/16 12:25:13;;;;;;;2.50;2.30;;;27.30;96.20;;;;;;5068314;28;20217;-61
2022/06/16 12:27:47;;;;;;;4.80;2.83;;;27.50;98.70;;;;;;5067737;28;20234;-61
2022/06/16 12:30:21;;;;;;;4.13;2.43;;;27.60;98.50;;;;;;5049204;28;20196;-61
2022/06/16 12:32:59;;;;;;;3.03;2.55;;;27.80;98.10;;;;;;5060032;28;20847;-61
2022/06/16 12:35:36;;;;;;;3.03;2.37;;;27.90;97.30;;;;;;5041244;28;20870;-61
2022/06/16 12:38:09;;;;;;;3.10;2.40;;;27.90;98.00;;;;;;5065803;28;20378;-61
2022/06/16 12:40:42;;;;;;;4.53;2.60;;;28.00;96.50;;;;;;5059756;28;20220;-61
2022/06/16 12:43:16;;;;;;;4.22;2.30;;;27.80;96.80;;;;;;5061535;28;20876;-61
2022/06/16 12:45:49;;;;;;;4.80;2.50;;;27.80;97.30;;;;;;5059658;28;20200;-61
2022/06/16 12:48:23;;;;;;;32.73;4.00;;;27.80;99.50;;;;;;5058270;28;20911;-61
2022/06/16 12:50:56;;;;;;;19.93;3.33;;;28.10;97.50;;;;;;5062255;28;20206;-61
2022/06/16 12:53:29;;;;;;;17.07;3.60;;;28.30;97.20;;;;;;5056405;28;20224;-61
2022/06/16 12:56:05;;;;;;;8.93;2.63;;;28.20;95.60;;;;;;5061155;28;20275;-61
2022/06/16 12:58:37;;;;;;;2.50;2.30;;;28.10;98.20;;;;;;5056959;28;20753;-61
2022/06/16 13:01:07;;;;;;;5.33;2.40;;;28.30;97.90;;;;;;5053499;28;20199;-61
2022/06/16 13:03:42;;;;;;;4.70;2.47;;;28.60;96.80;;;;;;5021818;28;20631;-62
2022/06/16 13:06:12;;;;;;;6.13;2.80;;;28.60;98.10;;;;;;5020657;28;20308;-61
2022/06/16 13:08:44;;;;;;;3.25;2.35;;;28.60;97.80;;;;;;5021250;28;20233;-61
2022/06/16 13:11:17;;;;;;;2.30;2.20;;;28.50;94.60;;;;;;5017292;28;20788;-62
2022/06/16 13:13:51;;;;;;;3.37;2.53;;;28.50;95.70;;;;;;5038278;28;20226;-61
2022/06/16 13:16:23;;;;;;;3.33;2.37;;;28.50;96.10;;;;;;5018452;28;20268;-61
2022/06/16 13:18:57;;;;;;;4.93;2.43;;;28.30;96.00;;;;;;5017762;28;20220;-62
2022/06/16 13:21:32;;;;;;;2.40;2.20;;;28.40;97.60;;;;;;5020332;28;20209;-62
2022/06/16 13:24:10;;;;;;;4.38;2.63;;;28.40;99.00;;;;;;5020059;28;20205;-61
2022/06/16 13:26:54;;;;;;;3.10;2.20;;;28.40;95.00;;;;;;5011910;28;20241;-61
2022/06/16 13:29:24;;;;;;;2.60;2.40;;;28.40;98.10;;;;;;5007613;28;20213;-61
2022/06/16 13:32:00;;;;;;;2.50;2.30;;;28.60;97.60;;;;;;5017770;28;20206;-61
2022/06/16 13:34:51;;;;;;;2.35;2.25;;;28.60;96.30;;;;;;5011903;28;20917;-61